createdAt,value
2018-05-23T00:01:33.531Z,96827.61
2018-05-23T00:04:01.943Z,96826.86
2018-05-23T00:06:30.343Z,96827.94
2018-05-23T00:08:58.746Z,96834.38
2018-05-23T00:11:27.136Z,96826.40
2018-05-23T00:13:55.548Z,96833.92
2018-05-23T00:16:23.944Z,96837.39
2018-05-23T00:18:52.355Z,96838.91
2018-05-23T00:21:20.747Z,96848.86
2018-05-23T00:23:49.164Z,96844.47
2018-05-23T00:26:17.552Z,96839.82
2018-05-23T00:28:45.958Z,96842.89
2018-05-23T00:31:14.674Z,96834.29
2018-05-23T00:33:43.527Z,96831.63
2018-05-23T00:36:12.175Z,96829.20
2018-05-23T00:38:41.504Z,96830.17
2018-05-23T00:41:10.631Z,96832.88
2018-05-23T00:43:39.159Z,96840.56
2018-05-23T00:46:08.455Z,96841.13
2018-05-23T00:48:37.166Z,96843.83
2018-05-23T00:51:06.663Z,96845.28
2018-05-23T00:53:35.551Z,96835.20
2018-05-23T00:56:03.943Z,96835.23
2018-05-23T00:58:32.705Z,96835.23
2018-05-23T01:01:01.020Z,96830.61
2018-05-23T01:03:29.427Z,96822.86
2018-05-23T01:05:57.837Z,96829.57
2018-05-23T01:08:26.211Z,96827.28
2018-05-23T01:10:54.624Z,96826.70
2018-05-23T01:13:23.017Z,96825.83
2018-05-23T01:15:51.427Z,96829.23
2018-05-23T01:18:19.811Z,96827.92
2018-05-23T01:20:48.220Z,96832.47
2018-05-23T01:23:16.610Z,96829.57
2018-05-23T01:25:45.027Z,96837.28
2018-05-23T01:28:13.407Z,96841.30
2018-05-23T01:30:41.815Z,96840.05
2018-05-23T01:33:10.478Z,96841.41
2018-05-23T01:35:39.235Z,96844.23
2018-05-23T01:38:07.803Z,96852.33
2018-05-23T01:40:36.216Z,96856.55
2018-05-23T01:43:04.599Z,96855.12
2018-05-23T01:45:33.014Z,96858.00
2018-05-23T01:48:01.405Z,96858.59
2018-05-23T01:50:29.815Z,96857.77
2018-05-23T01:52:58.213Z,96857.81
2018-05-23T01:55:26.617Z,96858.70
2018-05-23T01:57:55.011Z,96860.19
2018-05-23T02:00:23.425Z,96860.83
2018-05-23T02:02:51.810Z,96854.45
2018-05-23T02:05:20.223Z,96857.16
2018-05-23T02:07:48.624Z,96860.05
2018-05-23T02:10:17.039Z,96855.60
2018-05-23T02:12:45.432Z,96865.08
2018-05-23T02:15:13.843Z,96863.73
2018-05-23T02:17:42.235Z,96862.98
2018-05-23T02:20:10.643Z,96868.75
2018-05-23T02:22:39.040Z,96868.62
2018-05-23T02:25:07.456Z,96872.80
2018-05-23T02:27:35.843Z,96869.83
2018-05-23T02:30:04.256Z,96870.97
2018-05-23T02:32:32.647Z,96874.11
2018-05-23T02:35:01.190Z,96868.14
2018-05-23T02:37:30.159Z,96877.20
2018-05-23T02:39:58.827Z,96879.80
2018-05-23T02:42:27.313Z,96875.39
2018-05-23T02:44:55.803Z,96876.66
2018-05-23T02:47:24.307Z,96871.52
2018-05-23T02:49:52.755Z,96872.97
2018-05-23T02:52:21.151Z,96876.68
2018-05-23T02:54:49.564Z,96872.47
2018-05-23T02:57:17.957Z,96875.80
2018-05-23T02:59:46.367Z,96876.55
2018-05-23T03:02:14.746Z,96875.42
2018-05-23T03:04:43.156Z,96883.52
2018-05-23T03:07:11.538Z,96881.52
2018-05-23T03:09:39.956Z,96877.91
2018-05-23T03:12:08.564Z,96879.40
2018-05-23T03:14:36.962Z,96872.69
2018-05-23T03:17:05.359Z,96880.52
2018-05-23T03:19:33.780Z,96877.95
2018-05-23T03:22:02.185Z,96874.70
2018-05-23T03:24:30.594Z,96873.77
2018-05-23T03:26:58.983Z,96882.81
2018-05-23T03:29:27.399Z,96877.99
2018-05-23T03:31:55.788Z,96881.05
2018-05-23T03:34:24.203Z,96878.22
2018-05-23T03:36:52.600Z,96889.09
2018-05-23T03:39:21.035Z,96887.97
2018-05-23T03:41:49.427Z,96888.55
2018-05-23T03:44:17.840Z,96894.69
2018-05-23T03:46:46.319Z,96894.92
2018-05-23T03:49:15.222Z,96898.27
2018-05-23T03:51:43.915Z,96896.28
2018-05-23T03:54:12.668Z,96895.40
2018-05-23T03:56:41.346Z,96896.67
2018-05-23T03:59:09.759Z,96895.02
2018-05-23T04:04:52.683Z,96889.63
2018-05-23T04:07:33.147Z,96894.32
2018-05-23T04:10:01.555Z,96895.56
2018-05-23T04:12:31.583Z,96897.62
2018-05-23T04:15:00.043Z,96896.54
2018-05-23T04:17:29.023Z,96899.07
2018-05-23T04:19:57.494Z,96903.80
2018-05-23T04:22:26.440Z,96896.17
2018-05-23T04:24:54.930Z,96899.25
2018-05-23T04:27:23.495Z,96897.63
2018-05-23T04:29:52.644Z,96902.86
2018-05-23T04:32:21.437Z,96903.70
2018-05-23T04:34:51.299Z,96906.13
2018-05-23T04:37:19.839Z,96907.71
2018-05-23T04:39:48.253Z,96911.16
2018-05-23T04:42:16.751Z,96918.91
2018-05-23T04:44:45.163Z,96925.29
2018-05-23T04:47:14.455Z,96923.32
2018-05-23T04:49:42.869Z,96932.14
2018-05-23T04:52:11.294Z,96925.85
2018-05-23T04:54:39.695Z,96931.06
2018-05-23T04:57:08.083Z,96933.59
2018-05-23T04:59:36.786Z,96930.84
2018-05-23T05:02:05.279Z,96936.25
2018-05-23T05:04:33.692Z,96940.66
2018-05-23T05:07:02.136Z,96943.89
2018-05-23T05:09:30.611Z,96943.76
2018-05-23T05:11:59.209Z,96950.89
2018-05-23T05:14:28.507Z,96953.62
2018-05-23T05:16:57.186Z,96951.81
2018-05-23T05:19:25.596Z,96951.44
2018-05-23T05:21:54.668Z,96950.16
2018-05-23T05:24:23.056Z,96957.38
2018-05-23T05:26:51.626Z,96961.58
2018-05-23T05:29:20.578Z,96961.84
2018-05-23T05:31:49.973Z,96965.75
2018-05-23T05:34:18.743Z,96971.45
2018-05-23T05:36:47.895Z,96978.91
2018-05-23T05:39:16.283Z,96979.22
2018-05-23T05:41:45.076Z,96983.25
2018-05-23T05:44:13.472Z,96991.88
2018-05-23T05:46:42.051Z,96981.25
2018-05-23T05:49:10.445Z,96987.24
2018-05-23T05:51:38.846Z,96993.16
2018-05-23T05:54:07.226Z,96994.63
2018-05-23T05:56:35.635Z,96997.13
2018-05-23T05:59:04.024Z,96999.08
2018-05-23T06:01:32.428Z,96999.59
2018-05-23T06:04:00.824Z,97000.34
2018-05-23T06:06:29.239Z,97006.89
2018-05-23T06:08:57.627Z,97007.14
2018-05-23T06:11:26.032Z,97015.52
2018-05-23T06:13:54.425Z,97013.48
2018-05-23T06:16:22.831Z,97015.70
2018-05-23T06:18:51.223Z,97012.50
2018-05-23T06:21:19.627Z,97025.84
2018-05-23T06:23:48.021Z,97025.92
2018-05-23T06:26:16.420Z,97023.00
2018-05-23T06:28:44.800Z,97023.60
2018-05-23T06:31:13.198Z,97020.47
2018-05-23T06:33:41.590Z,97023.23
2018-05-23T06:36:09.999Z,97024.77
2018-05-23T06:38:38.660Z,97020.68
2018-05-23T06:41:07.684Z,97029.29
2018-05-23T06:43:36.854Z,97032.75
2018-05-23T06:46:05.180Z,97032.46
2018-05-23T06:48:33.568Z,97032.59
2018-05-23T06:51:02.788Z,97033.72
2018-05-23T06:53:32.031Z,97038.75
2018-05-23T06:56:00.797Z,97039.30
2018-05-23T06:58:29.815Z,97036.97
2018-05-23T07:00:58.456Z,97034.23
2018-05-23T07:03:27.411Z,97042.32
2018-05-23T07:05:56.493Z,97046.30
2018-05-23T07:08:25.418Z,97048.12
2018-05-23T07:10:54.349Z,97056.12
2018-05-23T07:13:23.358Z,97053.86
2018-05-23T07:15:52.020Z,97060.16
2018-05-23T07:18:20.692Z,97060.62
2018-05-23T07:20:49.472Z,97065.41
2018-05-23T07:23:18.527Z,97072.84
2018-05-23T07:25:47.515Z,97073.92
2018-05-23T07:28:16.160Z,97074.48
2018-05-23T07:30:44.933Z,97081.92
2018-05-23T07:33:13.702Z,97081.17
2018-05-23T07:35:42.407Z,97082.78
2018-05-23T07:38:11.311Z,97079.86
2018-05-23T07:40:39.799Z,97074.16
2018-05-23T07:43:09.102Z,97074.37
2018-05-23T07:45:37.779Z,97081.20
2018-05-23T07:48:06.484Z,97074.98
2018-05-23T07:50:35.355Z,97073.39
2018-05-23T07:53:03.743Z,97084.55
2018-05-23T07:55:32.263Z,97084.16
2018-05-23T07:58:00.648Z,97084.59
2018-05-23T08:00:29.550Z,97083.52
2018-05-23T08:02:57.942Z,97086.90
2018-05-23T08:05:26.756Z,97088.70
2018-05-23T08:07:55.547Z,97076.19
2018-05-23T08:10:24.569Z,97088.43
2018-05-23T08:12:53.235Z,97094.64
2018-05-23T08:15:21.642Z,97092.88
2018-05-23T08:17:50.794Z,97094.95
2018-05-23T08:20:19.423Z,97104.83
2018-05-23T08:22:48.175Z,97103.20
2018-05-23T08:25:16.572Z,97102.05
2018-05-23T08:27:44.981Z,97095.54
2018-05-23T08:30:13.376Z,97091.47
2018-05-23T08:32:41.783Z,97092.23
2018-05-23T08:35:10.179Z,97100.93
2018-05-23T08:37:38.587Z,97100.28
2018-05-23T08:40:06.979Z,97108.87
2018-05-23T08:42:35.951Z,97116.23
2018-05-23T08:45:04.968Z,97114.07
2018-05-23T08:47:33.528Z,97116.91
2018-05-23T08:50:02.768Z,97121.98
2018-05-23T08:52:31.729Z,97126.09
2018-05-23T08:55:00.620Z,97131.10
2018-05-23T08:57:29.392Z,97128.71
2018-05-23T08:59:57.857Z,97138.23
2018-05-23T09:02:26.520Z,97136.63
2018-05-23T09:04:55.765Z,97143.64
2018-05-23T09:07:24.946Z,97136.79
2018-05-23T09:09:53.919Z,97145.70
2018-05-23T09:12:22.507Z,97150.91
2018-05-23T09:14:50.895Z,97155.53
2018-05-23T09:17:20.069Z,97155.77
2018-05-23T09:19:49.192Z,97157.73
2018-05-23T09:22:17.899Z,97151.32
2018-05-23T09:24:47.211Z,97149.84
2018-05-23T09:27:15.877Z,97151.50
2018-05-23T09:29:44.756Z,97153.05
2018-05-23T09:32:13.625Z,97150.44
2018-05-23T09:34:42.119Z,97160.23
2018-05-23T09:37:10.819Z,97163.04
2018-05-23T09:39:39.215Z,97159.66
2018-05-23T09:42:07.782Z,97156.59
2018-05-23T09:44:36.784Z,97158.94
2018-05-23T09:47:05.187Z,97164.59
2018-05-23T09:49:33.567Z,97158.22
2018-05-23T09:52:01.973Z,97157.34
2018-05-23T09:54:30.354Z,97162.39
2018-05-23T09:56:58.812Z,97159.44
2018-05-23T09:59:27.174Z,97153.72
2018-05-23T10:01:55.583Z,97165.52
2018-05-23T10:04:23.964Z,97168.30
2018-05-23T10:06:52.378Z,97176.04
2018-05-23T10:09:20.751Z,97176.69
2018-05-23T10:11:49.155Z,97182.88
2018-05-23T10:14:17.539Z,97184.28
2018-05-23T10:16:45.942Z,97180.73
2018-05-23T10:19:14.339Z,97186.97
2018-05-23T10:21:42.736Z,97197.81
2018-05-23T10:24:11.753Z,97192.30
2018-05-23T10:26:40.149Z,97191.83
2018-05-23T10:29:08.528Z,97186.57
2018-05-23T10:31:36.939Z,97184.61
2018-05-23T10:34:05.323Z,97182.84
2018-05-23T10:36:33.724Z,97179.13
2018-05-23T10:39:02.202Z,97180.19
2018-05-23T10:41:30.836Z,97179.95
2018-05-23T10:43:59.579Z,97182.09
2018-05-23T10:46:28.224Z,97177.43
2018-05-23T10:48:57.287Z,97175.60
2018-05-23T10:51:25.695Z,97185.88
2018-05-23T10:53:54.896Z,97175.26
2018-05-23T10:56:23.745Z,97176.25
2018-05-23T10:58:52.131Z,97177.55
2018-05-23T11:01:20.736Z,97182.23
2018-05-23T11:03:49.117Z,97187.38
2018-05-23T11:06:17.503Z,97193.19
2018-05-23T11:08:45.880Z,97198.05
2018-05-23T11:11:14.279Z,97198.92
2018-05-23T11:13:42.678Z,97196.20
2018-05-23T11:16:11.063Z,97191.50
2018-05-23T11:18:39.456Z,97195.25
2018-05-23T11:21:07.847Z,97185.95
2018-05-23T11:23:36.226Z,97183.75
2018-05-23T11:26:04.612Z,97187.92
2018-05-23T11:28:33.002Z,97182.21
2018-05-23T11:31:01.380Z,97178.24
2018-05-23T11:33:29.776Z,97174.52
2018-05-23T11:35:58.159Z,97171.56
2018-05-23T11:38:26.560Z,97170.80
2018-05-23T11:40:54.944Z,97171.27
2018-05-23T11:43:23.419Z,97169.62
2018-05-23T11:45:52.415Z,97166.13
2018-05-23T11:48:22.061Z,97168.54
2018-05-23T11:50:50.774Z,97161.80
2018-05-23T11:53:19.164Z,97165.02
2018-05-23T11:55:47.542Z,97156.02
2018-05-23T11:58:15.937Z,97152.55
2018-05-23T12:00:44.321Z,97154.38
2018-05-23T12:03:12.726Z,97149.63
2018-05-23T12:05:41.112Z,97154.34
2018-05-23T12:08:09.511Z,97148.89
2018-05-23T12:10:37.988Z,97146.96
2018-05-23T12:13:06.274Z,97141.64
2018-05-23T12:15:34.654Z,97141.56
2018-05-23T12:18:03.052Z,97144.98
2018-05-23T12:20:31.435Z,97141.20
2018-05-23T12:22:59.830Z,97135.30
2018-05-23T12:25:28.216Z,97136.95
2018-05-23T12:27:56.604Z,97137.31
2018-05-23T12:30:24.978Z,97128.66
2018-05-23T12:32:53.379Z,97126.95
2018-05-23T12:35:21.764Z,97128.41
2018-05-23T12:37:50.154Z,97121.81
2018-05-23T12:40:18.527Z,97116.70
2018-05-23T12:42:46.979Z,97118.24
2018-05-23T12:45:15.358Z,97120.62
2018-05-23T12:47:44.212Z,97115.65
2018-05-23T12:50:13.567Z,97119.97
2018-05-23T12:52:42.427Z,97117.84
2018-05-23T12:55:11.368Z,97113.45
2018-05-23T12:57:39.901Z,97111.89
2018-05-23T13:00:08.284Z,97110.87
2018-05-23T13:02:36.863Z,97112.88
2018-05-23T13:05:05.235Z,97109.47
2018-05-23T13:07:33.641Z,97107.17
2018-05-23T13:10:02.020Z,97114.41
2018-05-23T13:12:30.481Z,97110.45
2018-05-23T13:14:58.791Z,97102.09
2018-05-23T13:17:27.183Z,97103.19
2018-05-23T13:19:55.554Z,97098.93
2018-05-23T13:22:23.961Z,97098.17
2018-05-23T13:24:52.341Z,97094.17
2018-05-23T13:27:20.730Z,97100.19
2018-05-23T13:29:49.116Z,97101.09
2018-05-23T13:32:17.518Z,97095.34
2018-05-23T13:34:45.887Z,97101.23
2018-05-23T13:37:14.291Z,97095.98
2018-05-23T13:39:42.674Z,97096.03
2018-05-23T13:42:11.066Z,97094.91
2018-05-23T13:44:39.650Z,97098.27
2018-05-23T13:47:08.043Z,97088.64
2018-05-23T13:49:37.339Z,97082.48
2018-05-23T13:52:05.992Z,97081.46
2018-05-23T13:54:34.373Z,97078.79
2018-05-23T13:57:02.776Z,97081.10
2018-05-23T13:59:31.155Z,97074.82
2018-05-23T14:01:59.546Z,97074.59
2018-05-23T14:04:27.932Z,97062.33
2018-05-23T14:06:56.328Z,97065.87
2018-05-23T14:09:24.704Z,97059.83
2018-05-23T14:11:53.079Z,97063.83
2018-05-23T14:14:21.479Z,97061.59
2018-05-23T14:16:49.853Z,97051.81
2018-05-23T14:19:18.324Z,97047.48
2018-05-23T14:21:46.631Z,97044.62
2018-05-23T14:24:15.023Z,97031.53
2018-05-23T14:26:43.390Z,97039.44
2018-05-23T14:29:11.791Z,97034.88
2018-05-23T14:31:40.171Z,97033.28
2018-05-23T14:34:08.575Z,97035.31
2018-05-23T14:36:36.944Z,97039.30
2018-05-23T14:39:06.115Z,97034.08
2018-05-23T14:41:34.495Z,97036.23
2018-05-23T14:44:02.899Z,97028.80
2018-05-23T14:46:31.796Z,97027.77
2018-05-23T14:49:00.182Z,97029.96
2018-05-23T14:51:28.695Z,97031.94
2018-05-23T14:53:57.441Z,97023.28
2018-05-23T14:56:26.001Z,97027.50
2018-05-23T14:58:54.495Z,97032.28
2018-05-23T15:01:22.863Z,97038.57
2018-05-23T15:03:51.268Z,97038.66
2018-05-23T15:06:19.636Z,97046.48
2018-05-23T15:08:48.023Z,97043.14
2018-05-23T15:11:16.399Z,97048.55
2018-05-23T15:13:44.796Z,97053.31
2018-05-23T15:16:13.176Z,97051.92
2018-05-23T15:18:41.562Z,97049.55
2018-05-23T15:21:09.938Z,97037.23
2018-05-23T15:23:38.343Z,97043.59
2018-05-23T15:26:06.723Z,97042.91
2018-05-23T15:28:35.116Z,97038.22
2018-05-23T15:31:03.483Z,97038.25
2018-05-23T15:33:31.875Z,97036.53
2018-05-23T15:36:00.259Z,97038.91
2018-05-23T15:38:28.656Z,97041.05
2018-05-23T15:40:57.032Z,97035.58
2018-05-23T15:43:25.457Z,97032.70
2018-05-23T15:45:53.835Z,97029.30
2018-05-23T15:48:23.074Z,97026.22
2018-05-23T15:50:51.459Z,97022.72
2018-05-23T15:53:20.063Z,97034.30
2018-05-23T15:55:48.772Z,97042.03
2018-05-23T15:58:17.547Z,97044.72
2018-05-23T16:00:45.915Z,97046.75
2018-05-23T16:03:14.411Z,97056.05
2018-05-23T16:05:43.404Z,97056.23
2018-05-23T16:08:11.991Z,97056.34
2018-05-23T16:10:40.387Z,97068.05
2018-05-23T16:13:09.947Z,97068.95
2018-05-23T16:15:38.776Z,97070.81
2018-05-23T16:18:07.343Z,97074.80
2018-05-23T16:20:35.811Z,97068.27
2018-05-23T16:23:04.126Z,97058.85
2018-05-23T16:25:32.503Z,97065.92
2018-05-23T16:28:00.906Z,97058.51
2018-05-23T16:30:29.292Z,97054.08
2018-05-23T16:32:57.699Z,97058.87
2018-05-23T16:35:26.075Z,97056.79
2018-05-23T16:37:54.787Z,97064.42
2018-05-23T16:40:23.722Z,97060.73
2018-05-23T16:42:53.014Z,97063.97
2018-05-23T16:45:22.103Z,97063.17
2018-05-23T16:47:50.508Z,97057.97
2018-05-23T16:50:20.517Z,97063.20
2018-05-23T16:52:49.276Z,97054.12
2018-05-23T16:55:18.467Z,97055.42
2018-05-23T16:57:46.839Z,97049.63
2018-05-23T17:00:15.237Z,97058.38
2018-05-23T17:02:43.608Z,97060.56
2018-05-23T17:05:12.040Z,97079.08
2018-05-23T17:07:41.507Z,97081.69
2018-05-23T17:10:10.172Z,97069.97
2018-05-23T17:12:38.554Z,97081.94
2018-05-23T17:15:07.156Z,97082.08
2018-05-23T17:17:35.552Z,97082.70
2018-05-23T17:20:03.959Z,97078.17
2018-05-23T17:22:32.358Z,97088.83
2018-05-23T17:25:01.059Z,97088.61
2018-05-23T17:27:30.448Z,97089.61
2018-05-23T17:29:58.804Z,97093.05
2018-05-23T17:32:27.840Z,97097.07
2018-05-23T17:34:56.527Z,97104.89
2018-05-23T17:37:25.520Z,97102.45
2018-05-23T17:39:54.004Z,97102.53
2018-05-23T17:42:22.384Z,97108.38
2018-05-23T17:44:50.868Z,97106.99
2018-05-23T17:47:19.263Z,97107.77
2018-05-23T17:49:49.374Z,97111.43
2018-05-23T17:52:18.071Z,97117.03
2018-05-23T17:54:46.868Z,97122.56
2018-05-23T17:57:15.735Z,97128.06
2018-05-23T17:59:44.400Z,97127.05
2018-05-23T18:02:13.920Z,97129.22
2018-05-23T18:04:42.995Z,97133.91
2018-05-23T18:07:11.391Z,97140.43
2018-05-23T18:09:40.554Z,97136.41
2018-05-23T18:12:09.446Z,97133.61
2018-05-23T18:14:38.339Z,97132.26
2018-05-23T18:17:06.735Z,97133.22
2018-05-23T18:19:36.090Z,97136.34
2018-05-23T18:22:04.846Z,97133.30
2018-05-23T18:24:33.234Z,97137.30
2018-05-23T18:27:01.640Z,97143.28
2018-05-23T18:29:30.379Z,97144.09
2018-05-23T18:31:59.342Z,97144.57
2018-05-23T18:34:27.735Z,97143.09
2018-05-23T18:36:56.135Z,97144.30
2018-05-23T18:39:25.327Z,97151.07
2018-05-23T18:41:54.030Z,97146.52
2018-05-23T18:44:22.834Z,97157.52
2018-05-23T18:46:51.226Z,97159.33
2018-05-23T18:49:20.161Z,97159.78
2018-05-23T18:51:49.207Z,97163.53
2018-05-23T18:54:18.747Z,97163.67
2018-05-23T18:56:47.184Z,97163.78
2018-05-23T18:59:15.962Z,97170.39
2018-05-23T19:01:44.627Z,97170.56
2018-05-23T19:04:13.139Z,97162.80
2018-05-23T19:06:41.526Z,97164.94
2018-05-23T19:09:09.906Z,97166.22
2018-05-23T19:11:38.301Z,97177.81
2018-05-23T19:14:06.691Z,97175.25
2018-05-23T19:16:35.079Z,97176.79
2018-05-23T19:19:03.455Z,97172.11
2018-05-23T19:21:31.867Z,97181.44
2018-05-23T19:24:00.245Z,97187.55
2018-05-23T19:26:28.663Z,97193.61
2018-05-23T19:28:57.155Z,97196.41
2018-05-23T19:31:25.598Z,97200.34
2018-05-23T19:33:54.100Z,97202.58
2018-05-23T19:36:22.479Z,97203.60
2018-05-23T19:38:50.880Z,97207.59
2018-05-23T19:41:19.485Z,97206.98
2018-05-23T19:43:47.943Z,97211.59
2018-05-23T19:46:16.320Z,97208.28
2018-05-23T19:48:44.731Z,97211.66
2018-05-23T19:51:13.229Z,97208.44
2018-05-23T19:53:42.647Z,97215.75
2018-05-23T19:56:11.476Z,97215.62
2018-05-23T19:58:40.921Z,97215.80
2018-05-23T20:01:09.646Z,97220.55
2018-05-23T20:03:38.239Z,97218.85
2018-05-23T20:06:08.398Z,97214.20
2018-05-23T20:08:37.251Z,97220.01
2018-05-23T20:11:07.311Z,97217.34
2018-05-23T20:13:36.267Z,97222.20
2018-05-23T20:16:04.639Z,97219.18
2018-05-23T20:18:33.043Z,97222.16
2018-05-23T20:21:02.071Z,97225.02
2018-05-23T20:23:30.487Z,97232.23
2018-05-23T20:25:59.100Z,97238.09
2018-05-23T20:28:27.674Z,97234.17
2018-05-23T20:30:56.051Z,97238.87
2018-05-23T20:33:24.447Z,97240.48
2018-05-23T20:35:53.795Z,97238.12
2018-05-23T20:38:22.616Z,97231.06
2018-05-23T20:40:51.669Z,97236.51
2018-05-23T20:43:20.583Z,97230.86
2018-05-23T20:45:48.959Z,97232.76
2018-05-23T20:48:17.368Z,97221.98
2018-05-23T20:50:46.840Z,97227.87
2018-05-23T20:53:15.440Z,97225.86
2018-05-23T20:55:43.827Z,97226.56
2018-05-23T20:58:12.211Z,97230.00
2018-05-23T21:00:40.928Z,97225.78
2018-05-23T21:03:09.837Z,97230.11
2018-05-23T21:05:38.812Z,97220.81
2018-05-23T21:08:08.009Z,97221.63
2018-05-23T21:10:36.772Z,97215.56
2018-05-23T21:13:05.971Z,97214.75
2018-05-23T21:15:34.372Z,97211.45
2018-05-23T21:18:02.915Z,97214.27
2018-05-23T21:20:31.320Z,97212.40
2018-05-23T21:23:00.011Z,97215.55
2018-05-23T21:25:28.890Z,97208.95
2018-05-23T21:27:57.343Z,97207.17
2018-05-23T21:30:25.855Z,97205.80
2018-05-23T21:32:55.032Z,97210.52
2018-05-23T21:35:23.819Z,97204.02
2018-05-23T21:37:52.551Z,97202.44
2018-05-23T21:40:21.310Z,97201.23
2018-05-23T21:42:50.164Z,97196.47
2018-05-23T21:45:18.804Z,97206.34
2018-05-23T21:47:48.232Z,97207.61
2018-05-23T21:50:17.039Z,97199.32
2018-05-23T21:52:45.763Z,97193.69
2018-05-23T21:55:14.176Z,97200.64
2018-05-23T21:57:43.559Z,97200.30
2018-05-23T22:00:11.959Z,97196.00
2018-05-23T22:02:40.944Z,97191.02
2018-05-23T22:05:09.723Z,97198.75
2018-05-23T22:07:38.117Z,97193.56
2018-05-23T22:10:06.515Z,97194.97
2018-05-23T22:12:34.895Z,97201.94
2018-05-23T22:15:03.299Z,97200.72
2018-05-23T22:17:31.679Z,97198.52
2018-05-23T22:20:00.079Z,97204.03
2018-05-23T22:22:28.459Z,97199.41
2018-05-23T22:24:56.855Z,97191.87
2018-05-23T22:27:25.234Z,97196.83
2018-05-23T22:29:53.631Z,97193.88
2018-05-23T22:32:22.015Z,97190.56
2018-05-23T22:34:50.410Z,97190.59
2018-05-23T22:37:18.794Z,97194.64
2018-05-23T22:39:47.204Z,97189.12
2018-05-23T22:42:15.579Z,97193.20
2018-05-23T22:44:43.983Z,97188.52
2018-05-23T22:47:12.375Z,97193.11
2018-05-23T22:49:40.787Z,97185.12
2018-05-23T22:52:09.187Z,97184.66
2018-05-23T22:54:38.259Z,97181.73
2018-05-23T22:57:06.651Z,97186.45
2018-05-23T22:59:35.303Z,97190.28
2018-05-23T23:02:04.204Z,97184.70
2018-05-23T23:04:32.787Z,97182.94
2018-05-23T23:07:01.260Z,97183.89
2018-05-23T23:09:29.676Z,97186.25
2018-05-23T23:11:58.062Z,97186.52
2018-05-23T23:14:27.179Z,97190.72
2018-05-23T23:16:55.700Z,97191.80
2018-05-23T23:19:24.107Z,97194.00
2018-05-23T23:21:52.490Z,97191.56
2018-05-23T23:24:20.895Z,97198.33
2018-05-23T23:26:49.282Z,97191.29
2018-05-23T23:29:17.683Z,97199.50
2018-05-23T23:31:47.067Z,97201.30
2018-05-23T23:34:15.480Z,97190.88
2018-05-23T23:36:43.862Z,97198.05
2018-05-23T23:39:12.263Z,97194.53
2018-05-23T23:41:40.648Z,97192.91
2018-05-23T23:44:09.039Z,97198.59
2018-05-23T23:46:37.438Z,97191.53
2018-05-23T23:49:05.847Z,97191.29
2018-05-23T23:51:34.242Z,97189.36
2018-05-23T23:54:02.635Z,97180.10
2018-05-23T23:56:31.048Z,97184.59
2018-05-23T23:58:59.798Z,97187.81
